Bay City, TX

10:59 PM CDT on September 19, 2014 (GMT -0500)
Selkirk Island | Change Station
CLOSE
Current Station
Personal Weather Station
Location: Bay City, TX
Elevation: 43 ft
Nearby Weather Stations

Elev 43 ft 28.77 °N, 95.99 °W | Updated 8 minutes ago

Partly Cloudy
Partly Cloudy
75.4 °F
Feels Like 75 °F
N
0.0
Wind Variable Wind from NNE

Today
High -- | Low -- °F
--% Chance of Precip.
Yesterday
High -- | Low -- °F
Precip. -- in
7:10 AM 7:23 PM
Waning Crescent, 15% visible
Pressure 29.93 in
Visibility 10.0 miles
Clouds Clear
Heat Index 75 °F
Dew Point 72 °F
Humidity 90%
Rainfall 0.18 in
Snow Depth Not available.
UV 0 out of 12
Pollen 6.30 out of 12
Air Quality Not available.
Flu Activity Not available.
METAR KARM 200335Z AUTO 10003KT 10SM CLR 24/23 A2993 RMK AO2 T02370227

More Conditions Fewer Conditions

Pressure 29.93 in
Visibility 10.0 miles
Clouds Clear
Heat Index 75 °F
Dew Point 72 °F
Humidity 90%
Rainfall 0.18 in
Snow Depth Not available.
UV 0 out of 12
Pollen 6.30 out of 12
Air Quality Not available.
Flu Activity Not available.
METAR KARM 200335Z AUTO 10003KT 10SM CLR 24/23 A2993 RMK AO2 T02370227

More Conditions Fewer Conditions

10-Day Weather Forecast

Almanac

Astronomy

Sep. 19, 2014 Rise Set
Actual Time 7:10 AM CDT 7:23 PM CDT
Civil Twilight 6:47 AM CDT 7:47 PM CDT
Nautical Twilight 6:19 AM CDT 8:15 PM CDT
Astronomical Twilight 5:51 AM CDT 8:43 PM CDT
Moon 3:12 AM CDT (9/19) 4:39 PM CDT (9/19)
Length of Visible Light 13h 00m
Length of Day
12h 13m
Tomorrow will be 1m 43s shorter.
Waning Crescent, 15% of the Moon is Illuminated
Today
Waning Crescent
Sep 24
New
Oct 1
First Quarter
Oct 8
Full
Oct 15
Last Quarter

Today's Extremes

State Highs State Lows

Community

WunderPhotos

Upload Photos

1,754,777 photos uploaded!

WunderBlogs® & News

Nearby

Snow Depth

Station Depth Elevation
No new snow has been reported.

Earthquake Activity

City Distance Mag. Time & Date
No recent earthquake activity has been reported nearby.
Minimum magnitude displayed is 2.5.

Coastal Water Temperatures

Place Temperature
Seadrift, TX 82.9 °F
Rockport, TX 86.0 °F
USCG Freeport, TX 82.0 °F

Nearby Weather Stations